Time;durP1;ratioP1;P1;durP2;ratioP2;P2;SDS_P1;SDS_P2;PMS_P1;PMS_P2;Temp;Humidity;BMP_temperature;BMP_pressure;BME280_temperature;BME280_humidity;BME280_pressure;Samples;Min_cycle;Max_cycle;Signal;HPM_P1;HPM_P2
2022/05/23 00:02:09;;;;;;;5.60;2.75;;;;;;;;;;5064480;28;20089;-76
2022/05/23 00:04:35;;;;;;;5.43;2.75;;;;;;;;;;5061496;28;20029;-76
2022/05/23 00:07:02;;;;;;;3.97;2.45;;;;;;;;;;5058841;28;20029;-77
2022/05/23 00:09:30;;;;;;;5.40;2.63;;;;;;;;;;5065024;28;20024;-76
2022/05/23 00:11:56;;;;;;;5.32;2.60;;;;;;;;;;5079735;28;20482;-76
2022/05/23 00:14:22;;;;;;;7.32;2.60;;;;;;;;;;5078270;28;20082;-76
2022/05/23 00:16:50;;;;;;;6.95;2.70;;;;;;;;;;5072139;28;20028;-76
2022/05/23 00:19:16;;;;;;;4.63;2.53;;;;;;;;;;5065182;28;20021;-75
2022/05/23 00:21:46;;;;;;;5.43;2.45;;;;;;;;;;5070969;28;20024;-76
2022/05/23 00:24:13;;;;;;;4.70;2.58;;;;;;;;;;5076510;28;20025;-76
2022/05/23 00:26:39;;;;;;;6.25;2.55;;;;;;;;;;5081969;28;20033;-76
2022/05/23 00:29:06;;;;;;;6.50;2.50;;;;;;;;;;5080543;28;20087;-76
2022/05/23 00:31:32;;;;;;;5.15;2.45;;;;;;;;;;5068434;28;20029;-76
2022/05/23 00:36:43;;;;;;;5.78;2.47;;;;;;;;;;5072578;28;20039;-76
2022/05/23 00:39:10;;;;;;;5.72;2.55;;;;;;;;;;5068187;28;20027;-76
2022/05/23 00:44:31;;;;;;;6.28;2.90;;;;;;;;;;5065064;28;20078;-76
2022/05/23 00:46:58;;;;;;;4.80;2.45;;;;;;;;;;5062331;28;20040;-75
2022/05/23 00:49:26;;;;;;;5.80;2.40;;;;;;;;;;5065434;28;20036;-76
2022/05/23 00:51:52;;;;;;;6.45;2.85;;;;;;;;;;5065409;28;20044;-75
2022/05/23 00:54:20;;;;;;;6.15;2.58;;;;;;;;;;5068228;28;20025;-76
2022/05/23 00:56:48;;;;;;;5.18;2.50;;;;;;;;;;5061668;28;20503;-76
2022/05/23 00:59:15;;;;;;;4.15;2.53;;;;;;;;;;5063563;28;20035;-76
2022/05/23 01:01:41;;;;;;;8.50;2.60;;;;;;;;;;5063894;28;20044;-76
2022/05/23 01:04:07;;;;;;;5.80;2.58;;;;;;;;;;5078585;28;20029;-76
2022/05/23 01:06:34;;;;;;;4.60;2.53;;;;;;;;;;5068530;28;20025;-77
2022/05/23 01:09:00;;;;;;;5.30;2.60;;;;;;;;;;5072614;28;20036;-76
2022/05/23 01:11:27;;;;;;;3.70;2.40;;;;;;;;;;5074606;28;20080;-76
2022/05/23 01:13:53;;;;;;;5.72;2.45;;;;;;;;;;5066881;28;20029;-75
2022/05/23 01:16:21;;;;;;;5.00;2.28;;;;;;;;;;5063959;28;20028;-76
2022/05/23 01:18:47;;;;;;;4.75;2.50;;;;;;;;;;5066621;28;20481;-76
2022/05/23 01:21:20;;;;;;;4.38;2.50;;;;;;;;;;5068715;28;20048;-76
2022/05/23 01:23:50;;;;;;;5.05;2.50;;;;;;;;;;5058688;28;20025;-76
2022/05/23 01:26:16;;;;;;;6.93;2.63;;;;;;;;;;5067881;28;20045;-76
2022/05/23 01:28:42;;;;;;;8.13;2.90;;;;;;;;;;5061687;28;20106;-76
2022/05/23 01:31:10;;;;;;;4.80;2.72;;;;;;;;;;5074379;28;20017;-76
2022/05/23 01:33:36;;;;;;;5.75;2.75;;;;;;;;;;5071903;28;20385;-77
2022/05/23 01:36:03;;;;;;;7.32;2.63;;;;;;;;;;5062725;28;20072;-76
2022/05/23 01:38:31;;;;;;;6.45;2.80;;;;;;;;;;5069454;28;20036;-77
2022/05/23 01:40:58;;;;;;;5.28;2.80;;;;;;;;;;5072450;28;20039;-78
2022/05/23 01:43:25;;;;;;;6.90;2.80;;;;;;;;;;5061816;28;20064;-76
2022/05/23 01:45:51;;;;;;;6.50;2.95;;;;;;;;;;5061333;28;20075;-76
2022/05/23 01:48:18;;;;;;;4.75;2.60;;;;;;;;;;5064659;28;20100;-77
2022/05/23 01:50:44;;;;;;;8.85;2.72;;;;;;;;;;5071013;28;20045;-76
2022/05/23 01:53:10;;;;;;;6.40;2.50;;;;;;;;;;5065249;28;20021;-76
2022/05/23 01:55:39;;;;;;;4.38;2.63;;;;;;;;;;5075512;28;20029;-75
2022/05/23 01:58:05;;;;;;;6.05;2.92;;;;;;;;;;5080973;28;20023;-76
2022/05/23 02:03:16;;;;;;;8.82;2.78;;;;;;;;;;5071031;28;20047;-76
2022/05/23 02:05:42;;;;;;;6.47;2.75;;;;;;;;;;5072371;28;20055;-77
2022/05/23 02:08:08;;;;;;;5.05;3.00;;;;;;;;;;5068956;28;20104;-75
2022/05/23 02:10:34;;;;;;;7.20;2.63;;;;;;;;;;5066885;28;20029;-76
2022/05/23 02:13:02;;;;;;;6.25;2.35;;;;;;;;;;5062927;28;20025;-76
2022/05/23 02:15:31;;;;;;;4.72;2.63;;;;;;;;;;5071936;28;20028;-76
2022/05/23 02:18:00;;;;;;;4.68;2.42;;;;;;;;;;5063305;28;20497;-77
2022/05/23 02:20:27;;;;;;;5.43;2.70;;;;;;;;;;5071345;28;20436;-76
2022/05/23 02:22:53;;;;;;;5.20;2.97;;;;;;;;;;5060124;28;20031;-75
2022/05/23 02:25:20;;;;;;;4.72;2.40;;;;;;;;;;5069452;28;20072;-76
2022/05/23 02:27:47;;;;;;;7.53;2.95;;;;;;;;;;5074306;28;20051;-75
2022/05/23 02:30:13;;;;;;;6.68;2.83;;;;;;;;;;5065566;28;20508;-75
2022/05/23 02:32:39;;;;;;;5.25;2.20;;;;;;;;;;5076584;28;20031;-76
2022/05/23 02:35:07;;;;;;;6.50;2.70;;;;;;;;;;5067502;28;20020;-78
2022/05/23 02:37:33;;;;;;;5.80;2.97;;;;;;;;;;5072686;28;20108;-76
2022/05/23 02:40:04;;;;;;;5.88;2.63;;;;;;;;;;5071666;28;20043;-76
2022/05/23 02:42:30;;;;;;;3.67;2.47;;;;;;;;;;5064605;28;20043;-76
2022/05/23 02:44:58;;;;;;;5.85;2.55;;;;;;;;;;5073424;28;20112;-76
2022/05/23 02:47:24;;;;;;;6.85;2.40;;;;;;;;;;5059439;28;20060;-77
2022/05/23 02:49:50;;;;;;;9.23;2.50;;;;;;;;;;5068649;28;20464;-76
2022/05/23 02:52:16;;;;;;;6.40;2.42;;;;;;;;;;5065874;28;20025;-77
2022/05/23 02:54:42;;;;;;;4.03;2.30;;;;;;;;;;5071170;28;20035;-76
2022/05/23 02:57:08;;;;;;;6.85;2.42;;;;;;;;;;5072244;28;20048;-76
2022/05/23 02:59:35;;;;;;;4.13;2.65;;;;;;;;;;5072261;28;20021;-77
2022/05/23 03:04:46;;;;;;;4.95;2.40;;;;;;;;;;5075362;28;20059;-75
2022/05/23 03:07:12;;;;;;;4.75;2.47;;;;;;;;;;5053806;28;20028;-76
2022/05/23 03:09:38;;;;;;;5.05;2.40;;;;;;;;;;5077445;28;20029;-75
2022/05/23 03:12:04;;;;;;;4.60;2.60;;;;;;;;;;5060401;28;20096;-75
2022/05/23 03:14:31;;;;;;;11.00;2.30;;;;;;;;;;5057941;28;20029;-76
2022/05/23 03:17:01;;;;;;;6.72;2.78;;;;;;;;;;5065379;28;20033;-75
2022/05/23 03:19:28;;;;;;;4.30;2.47;;;;;;;;;;5060601;28;20029;-76
2022/05/23 03:27:23;;;;;;;7.13;2.60;;;;;;;;;;5076576;28;20051;-76
2022/05/23 03:29:51;;;;;;;9.10;2.78;;;;;;;;;;5069437;28;20497;-76
2022/05/23 03:32:17;;;;;;;8.43;2.85;;;;;;;;;;5059423;28;20033;-76
2022/05/23 03:34:43;;;;;;;5.53;2.70;;;;;;;;;;5073778;28;20111;-77
2022/05/23 03:37:09;;;;;;;6.07;3.13;;;;;;;;;;5073377;28;20023;-76
2022/05/23 03:39:40;;;;;;;6.68;2.70;;;;;;;;;;5074687;28;20025;-76
2022/05/23 03:42:06;;;;;;;8.48;3.20;;;;;;;;;;5046888;28;20059;-76
2022/05/23 03:44:33;;;;;;;4.65;2.55;;;;;;;;;;5043838;28;20045;-76
2022/05/23 03:47:03;;;;;;;5.43;2.85;;;;;;;;;;5057673;28;20017;-76
2022/05/23 03:49:32;;;;;;;5.90;2.58;;;;;;;;;;5058895;28;20071;-75
2022/05/23 03:51:59;;;;;;;7.47;2.72;;;;;;;;;;5037766;28;20032;-75
2022/05/23 03:54:25;;;;;;;4.50;2.60;;;;;;;;;;5061250;28;20021;-78
2022/05/23 03:56:52;;;;;;;6.95;2.53;;;;;;;;;;5066688;28;20021;-76
2022/05/23 03:59:18;;;;;;;7.07;3.03;;;;;;;;;;5062770;28;20028;-76
2022/05/23 04:01:44;;;;;;;7.03;2.70;;;;;;;;;;5058761;28;20033;-76
2022/05/23 04:04:10;;;;;;;6.15;2.67;;;;;;;;;;5062377;28;20040;-76
2022/05/23 04:06:38;;;;;;;8.55;2.58;;;;;;;;;;5069174;28;20029;-76
2022/05/23 04:09:04;;;;;;;7.47;2.85;;;;;;;;;;5059907;28;20178;-75
2022/05/23 04:11:30;;;;;;;9.55;3.05;;;;;;;;;;5060220;28;20028;-76
2022/05/23 04:13:56;;;;;;;8.27;2.80;;;;;;;;;;5058514;28;20079;-76
2022/05/23 04:16:27;;;;;;;5.25;2.67;;;;;;;;;;5065106;28;20032;-76
2022/05/23 04:18:53;;;;;;;6.75;2.90;;;;;;;;;;5070758;28;20094;-77
2022/05/23 04:21:19;;;;;;;5.68;2.60;;;;;;;;;;5073816;28;20040;-77
2022/05/23 04:23:46;;;;;;;5.85;2.70;;;;;;;;;;5062442;28;20029;-77
2022/05/23 04:26:13;;;;;;;9.98;2.70;;;;;;;;;;5076825;28;20107;-76
2022/05/23 04:28:42;;;;;;;8.82;2.80;;;;;;;;;;5071612;28;20061;-77
2022/05/23 04:31:09;;;;;;;6.50;2.80;;;;;;;;;;5069982;28;20040;-76
2022/05/23 04:36:20;;;;;;;7.53;2.65;;;;;;;;;;5065258;28;20040;-76
2022/05/23 04:38:48;;;;;;;5.55;2.55;;;;;;;;;;5065930;28;20159;-75
2022/05/23 04:41:14;;;;;;;6.93;3.08;;;;;;;;;;5070291;28;20499;-76
2022/05/23 04:43:40;;;;;;;9.18;3.13;;;;;;;;;;5066916;28;20114;-76
2022/05/23 04:46:12;;;;;;;6.95;2.90;;;;;;;;;;5070766;28;20029;-76
2022/05/23 04:51:23;;;;;;;4.75;2.90;;;;;;;;;;5072763;28;20064;-72
2022/05/23 04:53:53;;;;;;;4.90;2.60;;;;;;;;;;5064161;28;20028;-75
2022/05/23 04:56:22;;;;;;;5.32;2.63;;;;;;;;;;5065181;28;20113;-73
2022/05/23 04:58:49;;;;;;;5.70;2.80;;;;;;;;;;5056526;28;20025;-73
2022/05/23 05:01:15;;;;;;;9.10;3.00;;;;;;;;;;5057187;28;20063;-75
2022/05/23 05:03:41;;;;;;;4.72;3.03;;;;;;;;;;5059278;28;20017;-77
2022/05/23 05:06:07;;;;;;;7.43;2.90;;;;;;;;;;5070939;28;20037;-76
2022/05/23 05:08:36;;;;;;;7.25;3.13;;;;;;;;;;5082761;28;20055;-75
2022/05/23 05:11:28;;;;;;;7.45;2.88;;;;;;;;;;5081498;28;20017;-78
2022/05/23 05:14:00;;;;;;;5.55;2.50;;;;;;;;;;5074092;28;20001;-75
2022/05/23 05:16:26;;;;;;;6.22;2.80;;;;;;;;;;5078681;28;20052;-75
2022/05/23 05:18:57;;;;;;;5.18;2.65;;;;;;;;;;5085266;28;20033;-75
2022/05/23 05:21:23;;;;;;;7.88;3.08;;;;;;;;;;5074711;28;20090;-75
2022/05/23 05:23:49;;;;;;;7.65;2.85;;;;;;;;;;5066614;28;20024;-75
2022/05/23 05:26:15;;;;;;;5.20;2.78;;;;;;;;;;5061748;28;20032;-78
2022/05/23 05:28:41;;;;;;;7.15;2.60;;;;;;;;;;5056732;28;20053;-75
2022/05/23 05:31:27;;;;;;;6.82;2.85;;;;;;;;;;5074370;28;20436;-77
2022/05/23 05:33:58;;;;;;;8.95;2.88;;;;;;;;;;5064716;28;20032;-75
2022/05/23 05:36:28;;;;;;;12.30;3.03;;;;;;;;;;5063600;28;20052;-74
2022/05/23 05:38:58;;;;;;;9.95;3.03;;;;;;;;;;5061832;28;20032;-74
2022/05/23 05:41:27;;;;;;;5.55;2.88;;;;;;;;;;5058577;28;20033;-73
2022/05/23 05:44:18;;;;;;;10.23;2.97;;;;;;;;;;5073054;28;20004;-77
2022/05/23 05:47:13;;;;;;;12.55;3.47;;;;;;;;;;5071330;28;20025;-79
2022/05/23 05:49:42;;;;;;;9.73;3.25;;;;;;;;;;5069955;28;20474;-74
2022/05/23 05:52:10;;;;;;;6.05;2.72;;;;;;;;;;5059674;28;20037;-75
2022/05/23 05:54:38;;;;;;;4.57;2.70;;;;;;;;;;5056147;28;20441;-73
2022/05/23 05:57:06;;;;;;;5.38;2.47;;;;;;;;;;5060722;28;20436;-74
2022/05/23 05:59:32;;;;;;;8.82;2.88;;;;;;;;;;5056158;28;20017;-74
2022/05/23 06:01:58;;;;;;;6.95;3.08;;;;;;;;;;5054093;28;20524;-80
2022/05/23 06:04:24;;;;;;;4.45;2.40;;;;;;;;;;5062425;28;20020;-77
2022/05/23 06:12:19;;;;;;;8.50;3.05;;;;;;;;;;5054544;28;20102;-84
2022/05/23 06:14:45;;;;;;;5.93;2.65;;;;;;;;;;5056535;28;20016;-74
2022/05/23 06:17:12;;;;;;;4.22;2.50;;;;;;;;;;5063896;28;20052;-75
2022/05/23 06:19:43;;;;;;;7.30;2.70;;;;;;;;;;5062930;28;20025;-73
2022/05/23 06:22:18;;;;;;;5.93;2.53;;;;;;;;;;5061051;28;20517;-84
2022/05/23 06:24:45;;;;;;;5.28;2.67;;;;;;;;;;5064787;28;20471;-80
2022/05/23 06:27:11;;;;;;;7.22;2.60;;;;;;;;;;5063089;28;20107;-80
2022/05/23 06:29:41;;;;;;;6.80;2.75;;;;;;;;;;5065605;28;20082;-82
2022/05/23 06:32:07;;;;;;;9.30;2.38;;;;;;;;;;5051322;28;20405;-85
2022/05/23 06:34:33;;;;;;;4.40;2.33;;;;;;;;;;5040145;28;20390;-88
2022/05/23 06:36:59;;;;;;;28.52;9.40;;;;;;;;;;5061924;28;20065;-78
2022/05/23 06:39:26;;;;;;;13.27;2.35;;;;;;;;;;5045747;28;20540;-81
2022/05/23 06:41:53;;;;;;;11.60;3.00;;;;;;;;;;5069176;28;20040;-82
2022/05/23 06:44:19;;;;;;;6.95;2.55;;;;;;;;;;5064695;28;20115;-74
2022/05/23 06:46:46;;;;;;;3.95;2.50;;;;;;;;;;5071524;28;20037;-74
2022/05/23 06:49:13;;;;;;;4.55;2.50;;;;;;;;;;5068451;28;20139;-72
2022/05/23 06:51:40;;;;;;;10.05;2.70;;;;;;;;;;5064305;28;20036;-70
2022/05/23 06:54:09;;;;;;;6.28;2.80;;;;;;;;;;5063899;28;20025;-76
2022/05/23 06:56:35;;;;;;;8.68;3.15;;;;;;;;;;5060795;28;20029;-71
2022/05/23 06:59:02;;;;;;;7.20;2.70;;;;;;;;;;5066868;28;20428;-71
2022/05/23 07:01:28;;;;;;;19.20;4.05;;;;;;;;;;5056882;28;20059;-71
2022/05/23 07:03:54;;;;;;;5.45;2.70;;;;;;;;;;5059989;28;20024;-71
2022/05/23 07:14:34;;;;;;;8.52;3.10;;;;;;;;;;5061052;28;20098;-80
2022/05/23 07:17:13;;;;;;;7.40;3.00;;;;;;;;;;5046851;28;20028;-85
2022/05/23 07:19:39;;;;;;;7.70;2.55;;;;;;;;;;5055931;28;20025;-88
2022/05/23 07:22:06;;;;;;;5.70;2.60;;;;;;;;;;5057230;28;20094;-80
2022/05/23 07:24:32;;;;;;;4.93;2.70;;;;;;;;;;5065595;28;20074;-82
2022/05/23 07:27:02;;;;;;;11.10;3.05;;;;;;;;;;5060131;28;20047;-87
2022/05/23 07:29:29;;;;;;;7.55;2.83;;;;;;;;;;5062252;28;20096;-85
2022/05/23 07:31:57;;;;;;;8.60;2.90;;;;;;;;;;5058929;28;20048;-83
2022/05/23 07:34:23;;;;;;;6.28;2.50;;;;;;;;;;5057616;28;20024;-80
2022/05/23 07:36:49;;;;;;;6.95;2.40;;;;;;;;;;5058597;28;20028;-77
2022/05/23 07:39:16;;;;;;;7.97;2.30;;;;;;;;;;5062392;28;20332;-78
2022/05/23 07:41:43;;;;;;;5.82;2.85;;;;;;;;;;5062945;28;20093;-88
2022/05/23 07:44:10;;;;;;;5.38;2.50;;;;;;;;;;5041589;28;20051;-84
2022/05/23 07:46:37;;;;;;;6.28;2.60;;;;;;;;;;5046959;28;20242;-86
2022/05/23 07:49:03;;;;;;;7.88;2.90;;;;;;;;;;5061076;28;20486;-88
2022/05/23 07:51:30;;;;;;;4.28;2.20;;;;;;;;;;5037294;28;20226;-90
2022/05/23 08:02:12;;;;;;;10.32;4.45;;;;;;;;;;5059792;28;20405;-80
2022/05/23 08:04:38;;;;;;;8.27;2.58;;;;;;;;;;5062699;28;20493;-84
2022/05/23 08:07:05;;;;;;;6.82;2.60;;;;;;;;;;5040469;28;20095;-72
2022/05/23 08:09:31;;;;;;;133.10;18.50;;;;;;;;;;5063238;28;20075;-70
2022/05/23 08:11:58;;;;;;;34.53;5.53;;;;;;;;;;5057857;28;20063;-72
2022/05/23 08:14:25;;;;;;;5.05;2.63;;;;;;;;;;5058654;28;20056;-84
2022/05/23 08:16:52;;;;;;;11.40;2.53;;;;;;;;;;5056248;28;20083;-84
2022/05/23 08:19:18;;;;;;;6.38;2.60;;;;;;;;;;5066583;28;20028;-74
2022/05/23 08:21:49;;;;;;;11.57;2.13;;;;;;;;;;5056760;28;20041;-79
2022/05/23 08:24:16;;;;;;;15.05;5.20;;;;;;;;;;5059717;28;20055;-77
2022/05/23 08:26:43;;;;;;;4.57;2.20;;;;;;;;;;5054132;28;20074;-80
2022/05/23 08:29:09;;;;;;;4.13;2.20;;;;;;;;;;5058376;28;20041;-75
2022/05/23 08:31:35;;;;;;;40.25;6.80;;;;;;;;;;5060103;28;20025;-84
2022/05/23 08:34:02;;;;;;;712.55;132.48;;;;;;;;;;5064419;28;20104;-82
2022/05/23 08:36:28;;;;;;;771.60;113.88;;;;;;;;;;5066088;28;20035;-81
2022/05/23 08:38:54;;;;;;;193.27;27.17;;;;;;;;;;5057198;28;20115;-74
2022/05/23 08:41:23;;;;;;;5.95;2.10;;;;;;;;;;5067484;28;20033;-82
2022/05/23 08:44:02;;;;;;;7.22;2.30;;;;;;;;;;5060739;28;20049;-87
2022/05/23 08:46:47;;;;;;;12.85;2.63;;;;;;;;;;5054367;28;20062;-74
2022/05/23 08:49:21;;;;;;;7.43;2.33;;;;;;;;;;5061436;28;20102;-90
2022/05/23 08:51:58;;;;;;;4.80;2.53;;;;;;;;;;5064558;28;20029;-77
2022/05/23 08:54:42;;;;;;;6.20;2.40;;;;;;;;;;5056203;28;20032;-84
2022/05/23 08:57:10;;;;;;;6.63;2.40;;;;;;;;;;5062526;28;20056;-81
2022/05/23 08:59:42;;;;;;;5.78;2.10;;;;;;;;;;5066512;28;20095;-80
2022/05/23 09:02:15;;;;;;;5.37;2.20;;;;;;;;;;5056218;28;20033;-88
2022/05/23 09:04:45;;;;;;;4.65;2.15;;;;;;;;;;5058113;28;20025;-80
2022/05/23 09:07:14;;;;;;;14.65;2.80;;;;;;;;;;5058446;28;20113;-85
2022/05/23 09:09:40;;;;;;;3.75;2.08;;;;;;;;;;5063930;28;20024;-83
2022/05/23 09:12:09;;;;;;;5.28;2.47;;;;;;;;;;5068184;28;20165;-87
2022/05/23 09:14:35;;;;;;;7.60;3.13;;;;;;;;;;5069156;28;20021;-85
2022/05/23 09:17:02;;;;;;;10.13;3.03;;;;;;;;;;5063547;28;20021;-84
2022/05/23 09:19:50;;;;;;;10.55;2.42;;;;;;;;;;5062646;28;20021;-78
2022/05/23 09:22:20;;;;;;;3.97;2.08;;;;;;;;;;5055537;28;20041;-87
2022/05/23 09:24:46;;;;;;;6.30;2.60;;;;;;;;;;5062723;28;20021;-87
2022/05/23 09:27:26;;;;;;;5.90;2.30;;;;;;;;;;5056403;28;20094;-84
2022/05/23 09:29:53;;;;;;;8.68;2.72;;;;;;;;;;5062251;28;20423;-82
2022/05/23 09:32:23;;;;;;;843.72;118.78;;;;;;;;;;5051577;28;20552;-89
2022/05/23 09:35:13;;;;;;;7.15;2.55;;;;;;;;;;5055557;28;20071;-82
2022/05/23 09:37:41;;;;;;;16.35;4.40;;;;;;;;;;5051911;28;20036;-81
2022/05/23 09:40:09;;;;;;;11.73;3.50;;;;;;;;;;5059137;28;20102;-75
2022/05/23 09:48:17;;;;;;;4.85;2.10;;;;;;;;;;5056647;28;20090;-82
2022/05/23 09:50:45;;;;;;;4.75;2.15;;;;;;;;;;5062631;28;20021;-81
2022/05/23 09:53:20;;;;;;;2.33;1.77;;;;;;;;;;5064802;28;20127;-84
2022/05/23 09:55:47;;;;;;;5.30;2.50;;;;;;;;;;5061303;28;20028;-89
2022/05/23 09:58:21;;;;;;;4.45;2.55;;;;;;;;;;5057254;28;20104;-85
2022/05/23 10:01:19;;;;;;;4.88;2.20;;;;;;;;;;5064009;28;20033;-76
2022/05/23 10:03:49;;;;;;;10.82;2.78;;;;;;;;;;5008931;28;20142;-87
2022/05/23 10:06:17;;;;;;;13.93;2.92;;;;;;;;;;5025373;28;20048;-86
2022/05/23 10:08:44;;;;;;;3.45;2.03;;;;;;;;;;5029604;28;20042;-84
2022/05/23 10:11:19;;;;;;;4.53;2.10;;;;;;;;;;5023141;28;20533;-75
2022/05/23 10:13:50;;;;;;;6.25;2.38;;;;;;;;;;5019154;28;20061;-84
2022/05/23 10:16:18;;;;;;;3.97;2.30;;;;;;;;;;5013777;28;20033;-83
2022/05/23 10:18:50;;;;;;;3.85;2.00;;;;;;;;;;5024446;28;20057;-76
2022/05/23 10:21:27;;;;;;;4.28;2.30;;;;;;;;;;5022950;28;20054;-76
2022/05/23 10:24:25;;;;;;;5.50;1.92;;;;;;;;;;5016929;28;20030;-82
2022/05/23 10:26:57;;;;;;;8.07;2.50;;;;;;;;;;5012048;28;20547;-75
2022/05/23 10:29:27;;;;;;;4.82;2.72;;;;;;;;;;5015466;28;20064;-83
2022/05/23 10:32:04;;;;;;;8.02;2.47;;;;;;;;;;5019165;28;20121;-85
2022/05/23 10:34:43;;;;;;;4.88;2.38;;;;;;;;;;5021898;28;20480;-86
2022/05/23 10:37:29;;;;;;;7.43;2.50;;;;;;;;;;5024761;28;20523;-86
2022/05/23 10:42:52;;;;;;;3.10;1.90;;;;;;;;;;5067827;28;20127;-87
2022/05/23 10:45:21;;;;;;;19.65;2.97;;;;;;;;;;5055573;28;20021;-79
2022/05/23 10:48:06;;;;;;;4.60;1.90;;;;;;;;;;5053966;28;20040;-86
2022/05/23 10:50:54;;;;;;;4.82;2.10;;;;;;;;;;5059851;28;20040;-88
2022/05/23 10:53:39;;;;;;;3.95;2.03;;;;;;;;;;5045991;28;20078;-84
2022/05/23 10:56:17;;;;;;;13.35;2.85;;;;;;;;;;5058807;28;20113;-74
2022/05/23 10:58:59;;;;;;;6.90;2.33;;;;;;;;;;5063177;28;20021;-87
2022/05/23 11:01:34;;;;;;;4.10;1.70;;;;;;;;;;5060658;28;20051;-77
2022/05/23 11:04:02;;;;;;;29.30;3.63;;;;;;;;;;5058247;28;20032;-80
2022/05/23 11:06:47;;;;;;;10.93;3.00;;;;;;;;;;5053841;28;20478;-86
2022/05/23 11:09:23;;;;;;;3.95;2.00;;;;;;;;;;5057127;28;20032;-82
2022/05/23 11:11:53;;;;;;;5.78;2.30;;;;;;;;;;5057358;28;20040;-87
2022/05/23 11:14:19;;;;;;;4.43;2.08;;;;;;;;;;5066063;28;20025;-81
2022/05/23 11:17:02;;;;;;;4.13;1.98;;;;;;;;;;5057235;28;20024;-84
2022/05/23 11:19:46;;;;;;;9.15;3.00;;;;;;;;;;5063202;28;20044;-80
2022/05/23 11:22:19;;;;;;;4.95;2.42;;;;;;;;;;5055949;28;20046;-83
2022/05/23 11:24:48;;;;;;;6.60;2.03;;;;;;;;;;5057663;28;20501;-82
2022/05/23 11:35:42;;;;;;;3.10;2.00;;;;;;;;;;5058263;28;20039;-87
2022/05/23 11:38:08;;;;;;;3.47;2.00;;;;;;;;;;5058457;28;20460;-83
2022/05/23 11:40:38;;;;;;;2.53;1.95;;;;;;;;;;5038391;28;20449;-85
2022/05/23 11:43:07;;;;;;;5.50;2.05;;;;;;;;;;5053804;28;20021;-87
2022/05/23 11:48:44;;;;;;;3.92;2.38;;;;;;;;;;5058403;28;20043;-78
2022/05/23 11:51:10;;;;;;;5.53;2.15;;;;;;;;;;5055712;28;20029;-83
2022/05/23 11:53:37;;;;;;;12.52;2.55;;;;;;;;;;5062532;28;20021;-90
2022/05/23 11:56:09;;;;;;;3.20;2.20;;;;;;;;;;5052924;28;20116;-84
2022/05/23 11:58:48;;;;;;;8.30;2.38;;;;;;;;;;5055256;28;20462;-82
2022/05/23 12:01:14;;;;;;;4.47;1.92;;;;;;;;;;5063905;28;20595;-78
2022/05/23 12:03:49;;;;;;;3.35;1.80;;;;;;;;;;5063462;28;20027;-79
2022/05/23 12:06:22;;;;;;;7.35;2.08;;;;;;;;;;5062549;28;20017;-88
2022/05/23 12:09:07;;;;;;;7.30;2.83;;;;;;;;;;5058751;28;20070;-84
2022/05/23 12:11:35;;;;;;;8.45;2.58;;;;;;;;;;5053880;28;20028;-77
2022/05/23 12:14:21;;;;;;;7.35;3.20;;;;;;;;;;5064046;28;20028;-80
2022/05/23 12:16:57;;;;;;;7.57;2.50;;;;;;;;;;5054438;28;20029;-90
2022/05/23 12:19:32;;;;;;;5.57;2.10;;;;;;;;;;5063174;28;20036;-75
2022/05/23 12:22:16;;;;;;;62.80;5.68;;;;;;;;;;5064845;28;20082;-76
2022/05/23 12:24:57;;;;;;;4.60;2.00;;;;;;;;;;5069523;28;20114;-85
2022/05/23 12:27:27;;;;;;;21.95;3.47;;;;;;;;;;5059293;28;20055;-80
2022/05/23 12:30:13;;;;;;;7.63;2.67;;;;;;;;;;5068528;28;20031;-81
2022/05/23 12:32:39;;;;;;;6.57;2.15;;;;;;;;;;5063669;28;20060;-91
2022/05/23 12:35:07;;;;;;;4.57;2.08;;;;;;;;;;5058996;28;20024;-81
2022/05/23 12:37:35;;;;;;;7.40;2.13;;;;;;;;;;5068180;28;20024;-85
2022/05/23 12:40:08;;;;;;;8.30;2.45;;;;;;;;;;5071023;28;20032;-79
2022/05/23 12:42:40;;;;;;;5.30;2.10;;;;;;;;;;5064999;28;20045;-78
2022/05/23 12:45:09;;;;;;;4.95;2.08;;;;;;;;;;5066177;28;20033;-76
2022/05/23 12:47:44;;;;;;;5.78;2.03;;;;;;;;;;5067321;28;20021;-76
2022/05/23 12:50:31;;;;;;;6.03;2.20;;;;;;;;;;5061856;28;20035;-88
2022/05/23 12:53:14;;;;;;;12.82;2.58;;;;;;;;;;5059753;28;20044;-78
2022/05/23 12:55:58;;;;;;;8.73;2.50;;;;;;;;;;5065769;28;20483;-79
2022/05/23 12:58:36;;;;;;;8.75;2.22;;;;;;;;;;5065652;28;20036;-83
2022/05/23 13:01:07;;;;;;;6.80;2.30;;;;;;;;;;5059009;28;20043;-76
2022/05/23 13:03:54;;;;;;;10.13;2.60;;;;;;;;;;5063842;28;20037;-89
2022/05/23 13:06:25;;;;;;;5.32;2.25;;;;;;;;;;5060739;28;20377;-80
2022/05/23 13:08:54;;;;;;;5.47;2.75;;;;;;;;;;5073202;28;20355;-81
2022/05/23 13:11:33;;;;;;;6.65;2.17;;;;;;;;;;5070175;28;20021;-85
2022/05/23 13:14:00;;;;;;;5.88;2.30;;;;;;;;;;5067571;28;20012;-83
2022/05/23 13:16:28;;;;;;;24.60;3.72;;;;;;;;;;5056016;28;20024;-80
2022/05/23 13:27:10;;;;;;;18.52;3.15;;;;;;;;;;5062653;28;20140;-81
2022/05/23 13:29:37;;;;;;;12.98;7.97;;;;;;;;;;5061533;28;20024;-74
2022/05/23 13:32:07;;;;;;;5.13;2.80;;;;;;;;;;5061269;28;20029;-80
2022/05/23 13:34:37;;;;;;;9.48;3.85;;;;;;;;;;5060843;28;20016;-74
2022/05/23 13:37:06;;;;;;;6.13;2.47;;;;;;;;;;5065413;28;20141;-75
2022/05/23 13:39:32;;;;;;;5.40;2.30;;;;;;;;;;5061841;28;20033;-83
2022/05/23 13:42:02;;;;;;;33.97;5.78;;;;;;;;;;5059706;28;20072;-79
2022/05/23 13:44:30;;;;;;;6.97;2.25;;;;;;;;;;5061872;28;20020;-86
2022/05/23 13:47:06;;;;;;;7.32;2.97;;;;;;;;;;5060826;28;20029;-86
2022/05/23 13:49:34;;;;;;;6.38;2.65;;;;;;;;;;5054340;28;20052;-76
2022/05/23 13:52:02;;;;;;;5.70;2.20;;;;;;;;;;5060019;28;20680;-89
2022/05/23 13:54:38;;;;;;;4.90;2.20;;;;;;;;;;5057433;28;20021;-86
2022/05/23 13:57:15;;;;;;;10.55;3.97;;;;;;;;;;5058270;28;20025;-85
2022/05/23 13:59:49;;;;;;;10.82;2.80;;;;;;;;;;5061094;28;20025;-79
2022/05/23 14:02:14;;;;;;;;;;;;;;;;;;5058322;28;20128;-75
2022/05/23 14:04:41;;;;;;;5.30;2.45;;;;;;;;;;5063122;28;20419;-82
2022/05/23 14:07:12;;;;;;;5.90;2.40;;;;;;;;;;5054365;28;20028;-78
2022/05/23 14:09:46;;;;;;;8.60;2.58;;;;;;;;;;5066941;28;20082;-72
2022/05/23 14:12:14;;;;;;;6.20;2.60;;;;;;;;;;5063868;28;20024;-85
2022/05/23 14:14:41;;;;;;;5.43;2.10;;;;;;;;;;5044935;28;20032;-77
2022/05/23 14:17:10;;;;;;;4.22;2.30;;;;;;;;;;5060029;28;20036;-77
2022/05/23 14:19:56;;;;;;;9.88;2.17;;;;;;;;;;5061158;28;20028;-74
2022/05/23 14:22:22;;;;;;;7.00;2.50;;;;;;;;;;5060182;28;20186;-71
2022/05/23 14:24:50;;;;;;;7.32;2.45;;;;;;;;;;5058428;28;20049;-69
2022/05/23 14:27:25;;;;;;;4.72;2.20;;;;;;;;;;5057239;28;20053;-78
2022/05/23 14:30:12;;;;;;;9.20;2.63;;;;;;;;;;5056179;28;20036;-73
2022/05/23 14:32:38;;;;;;;5.85;2.20;;;;;;;;;;5057008;28;20031;-78
2022/05/23 14:35:12;;;;;;;7.50;2.30;;;;;;;;;;5061788;28;20032;-76
2022/05/23 14:37:40;;;;;;;7.32;2.00;;;;;;;;;;5059802;28;20063;-72
2022/05/23 14:40:06;;;;;;;8.70;2.17;;;;;;;;;;5060898;28;20031;-78
2022/05/23 14:42:36;;;;;;;4.40;2.42;;;;;;;;;;5058348;28;20167;-76
2022/05/23 14:45:11;;;;;;;8.57;2.10;;;;;;;;;;5064556;28;20386;-87
2022/05/23 14:47:37;;;;;;;6.55;2.10;;;;;;;;;;5060599;28;20021;-83
2022/05/23 14:50:06;;;;;;;4.40;2.30;;;;;;;;;;5068015;28;20028;-86
2022/05/23 14:52:45;;;;;;;9.63;2.45;;;;;;;;;;5062039;28;20036;-86
2022/05/23 14:55:19;;;;;;;3.08;1.85;;;;;;;;;;5061222;28;20459;-91
2022/05/23 15:00:44;;;;;;;7.30;2.25;;;;;;;;;;5063534;28;20110;-90
2022/05/23 15:03:09;;;;;;;;;;;;;;;;;;5059855;28;20024;-88
2022/05/23 15:05:36;;;;;;;8.85;2.25;;;;;;;;;;5062173;28;20400;-81
2022/05/23 15:08:03;;;;;;;4.28;2.22;;;;;;;;;;5057093;28;20094;-87
2022/05/23 15:10:29;;;;;;;11.13;2.50;;;;;;;;;;5056292;28;20029;-73
2022/05/23 15:12:56;;;;;;;10.80;2.28;;;;;;;;;;5058141;28;20500;-79
2022/05/23 15:15:22;;;;;;;3.97;2.47;;;;;;;;;;5057299;28;20096;-82
2022/05/23 15:17:51;;;;;;;5.07;2.15;;;;;;;;;;5060691;28;20025;-83
2022/05/23 15:20:18;;;;;;;13.15;2.60;;;;;;;;;;5052982;28;20017;-82
2022/05/23 15:22:44;;;;;;;4.47;2.10;;;;;;;;;;5055240;28;20040;-77
2022/05/23 15:25:11;;;;;;;6.40;2.50;;;;;;;;;;5064506;28;20016;-84
2022/05/23 15:27:39;;;;;;;7.50;2.22;;;;;;;;;;5059760;28;20040;-80
2022/05/23 15:30:10;;;;;;;7.93;2.28;;;;;;;;;;5059492;28;20392;-73
2022/05/23 15:32:37;;;;;;;5.82;2.20;;;;;;;;;;5061668;28;20032;-73
2022/05/23 15:35:03;;;;;;;5.57;2.00;;;;;;;;;;5063645;28;20025;-78
2022/05/23 15:37:30;;;;;;;5.05;2.08;;;;;;;;;;5058367;28;20029;-71
2022/05/23 15:39:56;;;;;;;6.95;2.20;;;;;;;;;;5064741;28;20024;-72
2022/05/23 15:42:29;;;;;;;10.02;2.50;;;;;;;;;;5051903;28;20425;-69
2022/05/23 15:44:55;;;;;;;;;;;;;;;;;;5058052;28;20036;-69
2022/05/23 15:47:26;;;;;;;2.60;1.92;;;;;;;;;;5056888;28;19912;-75
2022/05/23 15:49:52;;;;;;;8.30;2.40;;;;;;;;;;5040728;28;20017;-69
2022/05/23 15:52:18;;;;;;;10.98;2.42;;;;;;;;;;5054178;28;20048;-68
2022/05/23 15:54:45;;;;;;;2.78;1.80;;;;;;;;;;5061422;28;20099;-68
2022/05/23 15:57:11;;;;;;;3.72;2.20;;;;;;;;;;5064601;28;20048;-73
2022/05/23 15:59:41;;;;;;;4.65;2.30;;;;;;;;;;5069850;28;20029;-69
2022/05/23 16:02:09;;;;;;;7.13;2.30;;;;;;;;;;5057710;28;20048;-72
2022/05/23 16:04:35;;;;;;;6.97;2.05;;;;;;;;;;5058388;28;20025;-76
2022/05/23 16:07:01;;;;;;;10.38;2.42;;;;;;;;;;5061753;28;20025;-77
2022/05/23 16:09:28;;;;;;;4.10;1.98;;;;;;;;;;5052834;28;20021;-77
2022/05/23 16:11:54;;;;;;;6.38;2.30;;;;;;;;;;5061753;28;20020;-75